createdAt,value
2023-01-08T09:12:26.626Z,4.17
2023-01-08T09:14:58.384Z,4.14
2023-01-08T09:17:31.666Z,4.12
2023-01-08T09:20:05.847Z,4.12
2023-01-08T09:22:38.798Z,4.10
2023-01-08T09:25:10.490Z,4.10
2023-01-08T09:27:43.863Z,4.09
2023-01-08T09:30:16.170Z,4.06
2023-01-08T09:32:48.143Z,4.05
2023-01-08T09:35:44.226Z,4.02
2023-01-08T09:38:29.996Z,4.00
2023-01-08T09:41:45.558Z,3.97
2023-01-08T09:44:52.950Z,3.97
2023-01-08T09:47:59.249Z,3.96
2023-01-08T09:50:35.631Z,3.95
2023-01-08T09:53:14.509Z,3.93
2023-01-08T09:56:09.102Z,3.93
2023-01-08T09:58:44.573Z,3.92
2023-01-08T10:01:38.069Z,3.92
2023-01-08T10:04:23.311Z,3.91
2023-01-08T10:07:15.013Z,3.89
2023-01-08T10:09:47.727Z,3.89
2023-01-08T10:12:35.742Z,3.89
2023-01-08T10:15:15.171Z,3.89
2023-01-08T10:18:14.521Z,3.89
2023-01-08T10:20:46.824Z,3.89
2023-01-08T10:23:22.879Z,3.90
2023-01-08T10:25:58.696Z,3.91
2023-01-08T10:28:40.923Z,3.90
2023-01-08T10:31:17.592Z,3.90
2023-01-08T10:33:52.977Z,3.92
2023-01-08T10:36:27.823Z,3.92
2023-01-08T10:39:03.971Z,3.92
2023-01-08T10:41:41.190Z,3.92
2023-01-08T10:44:23.775Z,3.90
2023-01-08T10:47:11.767Z,3.91
2023-01-08T10:49:45.639Z,3.91
2023-01-08T10:52:36.929Z,3.92
2023-01-08T10:55:31.824Z,3.92
2023-01-08T10:58:09.852Z,3.92
2023-01-08T11:00:42.238Z,3.92
2023-01-08T11:03:35.627Z,3.93
2023-01-08T11:06:24.332Z,3.93
2023-01-08T11:09:14.321Z,3.95
2023-01-08T11:11:47.195Z,3.95
2023-01-08T11:14:41.106Z,3.94
2023-01-08T11:17:13.741Z,3.94
2023-01-08T11:19:50.659Z,3.96
2023-01-08T11:22:25.483Z,3.97
2023-01-08T11:24:58.407Z,3.99
2023-01-08T11:27:42.939Z,3.99
2023-01-08T11:30:19.774Z,4.01
2023-01-08T11:33:05.411Z,4.01
2023-01-08T11:35:50.219Z,4.02
2023-01-08T11:38:30.480Z,4.04
2023-01-08T11:41:25.574Z,4.04
2023-01-08T11:44:20.787Z,4.04
2023-01-08T11:46:57.303Z,4.05
2023-01-08T11:49:56.554Z,4.03
2023-01-08T11:53:06.319Z,4.03
2023-01-08T11:55:52.956Z,4.01
2023-01-08T11:58:34.743Z,4.02
2023-01-08T12:01:32.860Z,4.04
2023-01-08T12:04:37.417Z,4.06
2023-01-08T12:07:23.603Z,4.07
2023-01-08T12:10:15.322Z,4.09
2023-01-08T12:12:49.850Z,4.11
2023-01-08T12:15:22.234Z,4.12
2023-01-08T12:18:20.503Z,4.12
2023-01-08T12:21:14.441Z,4.11
2023-01-08T12:24:23.714Z,4.11
2023-01-08T12:27:14.414Z,4.12
2023-01-08T12:30:11.783Z,4.11
2023-01-08T12:32:56.851Z,4.08
2023-01-08T12:35:52.667Z,4.07
2023-01-08T12:38:58.591Z,4.06
2023-01-08T12:41:33.924Z,4.06
2023-01-08T12:44:11.609Z,4.05
2023-01-08T12:46:47.748Z,4.06
2023-01-08T12:49:31.485Z,4.06
2023-01-08T12:52:12.556Z,4.06
2023-01-08T12:55:21.079Z,4.06
2023-01-08T12:58:11.078Z,4.06
2023-01-08T13:00:54.395Z,4.03
2023-01-08T13:03:29.970Z,4.03
2023-01-08T13:06:15.668Z,4.04
2023-01-08T13:08:54.106Z,4.05
2023-01-08T13:11:30.797Z,4.03
2023-01-08T13:14:21.613Z,4.01
2023-01-08T13:17:07.816Z,4.01
2023-01-08T13:19:45.523Z,4.00
2023-01-08T13:22:37.731Z,4.00
2023-01-08T13:25:15.425Z,4.00
2023-01-08T13:27:48.115Z,4.01
2023-01-08T13:30:43.166Z,4.00
2023-01-08T13:33:39.991Z,4.01
2023-01-08T13:36:21.086Z,4.01
2023-01-08T13:39:06.361Z,4.01
2023-01-08T13:41:56.736Z,4.03
2023-01-08T13:44:36.954Z,4.04
2023-01-08T13:47:47.111Z,4.04
2023-01-08T13:50:24.294Z,4.07
2023-01-08T13:53:01.085Z,4.07
2023-01-08T13:55:37.347Z,4.08
2023-01-08T13:58:24.524Z,4.08
2023-01-08T14:00:57.872Z,4.10
2023-01-08T14:03:35.805Z,4.11
2023-01-08T14:06:17.129Z,4.11
2023-01-08T14:08:59.128Z,4.12
2023-01-08T14:11:44.886Z,4.12
2023-01-08T14:14:20.077Z,4.12
2023-01-08T14:16:53.548Z,4.12
2023-01-08T14:19:26.283Z,4.12
2023-01-08T14:22:02.029Z,4.12
2023-01-08T14:24:34.503Z,4.13
2023-01-08T14:27:21.269Z,4.14
2023-01-08T14:29:54.014Z,4.15
2023-01-08T14:32:29.427Z,4.16
2023-01-08T14:35:04.219Z,4.17
2023-01-08T14:37:36.152Z,4.17
2023-01-08T14:40:15.893Z,4.17
2023-01-08T14:42:50.555Z,4.19
2023-01-08T14:45:34.511Z,4.20
2023-01-08T14:48:16.861Z,4.18
2023-01-08T14:51:04.814Z,4.22
2023-01-08T14:53:49.737Z,4.24
2023-01-08T14:56:30.452Z,4.25
2023-01-08T14:59:10.227Z,4.25
2023-01-08T15:01:42.367Z,4.27
2023-01-08T15:04:19.065Z,4.28
2023-01-08T15:06:52.886Z,4.30
2023-01-08T15:09:32.463Z,4.31
2023-01-08T15:12:22.730Z,4.31
2023-01-08T15:14:55.511Z,4.32
2023-01-08T15:17:28.883Z,4.34
2023-01-08T15:20:02.063Z,4.35
2023-01-08T15:22:36.584Z,4.36
2023-01-08T15:25:18.026Z,4.38
2023-01-08T15:27:58.881Z,4.40
2023-01-08T15:30:38.348Z,4.43
2023-01-08T15:33:23.256Z,4.44
2023-01-08T15:35:55.005Z,4.46
2023-01-08T15:38:26.617Z,4.48
2023-01-08T15:40:58.298Z,4.50
2023-01-08T15:43:29.967Z,4.52
2023-01-08T15:46:02.107Z,4.54
2023-01-08T15:48:34.095Z,4.56
2023-01-08T15:51:07.379Z,4.58
2023-01-08T15:53:39.115Z,4.58
2023-01-08T15:56:10.654Z,4.60
2023-01-08T15:58:42.466Z,4.61
2023-01-08T16:01:14.686Z,4.63
2023-01-08T16:03:47.550Z,4.66
2023-01-08T16:06:19.370Z,4.68
2023-01-08T16:08:51.383Z,4.68
2023-01-08T16:11:25.790Z,4.68
2023-01-08T16:13:57.641Z,4.68
2023-01-08T16:16:29.867Z,4.69
2023-01-08T16:19:02.003Z,4.69
2023-01-08T16:21:33.734Z,4.69
2023-01-08T16:24:06.305Z,4.69
2023-01-08T16:26:41.128Z,4.69
2023-01-08T16:29:12.803Z,4.69
2023-01-08T16:31:47.390Z,4.70
2023-01-08T16:34:20.151Z,4.70
2023-01-08T16:36:51.929Z,4.69
2023-01-08T16:39:23.926Z,4.70
2023-01-08T16:41:56.576Z,4.71
2023-01-08T16:44:28.811Z,4.71
2023-01-08T16:47:02.956Z,4.71
2023-01-08T16:49:36.262Z,4.71
2023-01-08T16:52:09.795Z,4.70
2023-01-08T16:54:42.126Z,4.70
2023-01-08T16:57:14.237Z,4.69
2023-01-08T16:59:46.171Z,4.69
2023-01-08T17:02:19.462Z,4.69
2023-01-08T17:04:54.475Z,4.68
2023-01-08T17:07:26.261Z,4.68
2023-01-08T17:09:59.430Z,4.68
2023-01-08T17:12:31.302Z,4.68
2023-01-08T17:15:04.924Z,4.68
2023-01-08T17:17:36.508Z,4.68
2023-01-08T17:20:09.459Z,4.68
2023-01-08T17:22:41.295Z,4.68
2023-01-08T17:25:13.347Z,4.69
2023-01-08T17:27:45.177Z,4.68
2023-01-08T17:30:16.938Z,4.68
2023-01-08T17:32:48.735Z,4.68
2023-01-08T17:35:26.112Z,4.69
2023-01-08T17:37:57.807Z,4.65
2023-01-08T17:40:29.537Z,4.70
2023-01-08T17:43:01.286Z,4.69
2023-01-08T17:45:33.096Z,4.70
2023-01-08T17:48:05.838Z,4.70
2023-01-08T17:50:40.145Z,4.70
2023-01-08T17:53:12.115Z,4.71
2023-01-08T17:55:47.376Z,4.72
2023-01-08T17:58:19.839Z,4.73
2023-01-08T18:00:51.615Z,4.75
2023-01-08T18:03:23.550Z,4.75
2023-01-08T18:05:55.731Z,4.76
2023-01-08T18:08:27.574Z,4.77
2023-01-08T18:11:07.664Z,4.78
2023-01-08T18:13:39.707Z,4.78
2023-01-08T18:16:14.319Z,4.78
2023-01-08T18:18:46.179Z,4.80
2023-01-08T18:21:19.194Z,4.80
2023-01-08T18:23:56.709Z,4.81
2023-01-08T18:26:29.426Z,4.81
2023-01-08T18:29:01.338Z,4.81
2023-01-08T18:31:33.123Z,4.82
2023-01-08T18:34:06.722Z,4.82
2023-01-08T18:36:41.526Z,4.83
2023-01-08T18:39:13.550Z,4.82
2023-01-08T18:42:04.584Z,4.83
2023-01-08T18:44:36.772Z,4.83
2023-01-08T18:47:09.163Z,4.83
2023-01-08T18:49:40.861Z,4.84
2023-01-08T18:52:14.203Z,4.78
2023-01-08T18:54:45.912Z,4.84
2023-01-08T18:57:18.896Z,4.85
2023-01-08T18:59:51.747Z,4.85
2023-01-08T19:02:31.638Z,4.86
2023-01-08T19:05:03.991Z,4.85
2023-01-08T19:07:36.413Z,4.85
2023-01-08T19:10:12.591Z,4.86
2023-01-08T19:12:45.137Z,4.86
2023-01-08T19:15:18.028Z,4.87
2023-01-08T19:17:50.521Z,4.87
2023-01-08T19:20:23.093Z,4.88
2023-01-08T19:22:58.061Z,4.89
2023-01-08T19:25:29.827Z,4.89
2023-01-08T19:28:01.810Z,4.90
2023-01-08T19:30:34.444Z,4.90
2023-01-08T19:33:06.364Z,4.92
2023-01-08T19:35:41.737Z,4.90
2023-01-08T19:38:15.070Z,4.91
2023-01-08T19:40:47.032Z,4.91
2023-01-08T19:43:39.064Z,4.92
2023-01-08T19:46:15.672Z,4.92
2023-01-08T19:48:48.823Z,4.93
2023-01-08T19:51:20.872Z,4.94
2023-01-08T19:53:53.631Z,4.94
2023-01-08T19:56:25.889Z,4.94
2023-01-08T19:58:58.869Z,4.95
2023-01-08T20:01:31.017Z,4.95
2023-01-08T20:04:06.237Z,4.94
2023-01-08T20:06:38.167Z,4.95
2023-01-08T20:09:11.795Z,4.96
2023-01-08T20:11:43.805Z,4.95
2023-01-08T20:14:15.717Z,4.96
2023-01-08T20:16:48.415Z,4.97
2023-01-08T20:19:24.010Z,4.97
2023-01-08T20:21:55.925Z,4.96
2023-01-08T20:24:29.069Z,4.96
2023-01-08T20:27:02.197Z,4.95
2023-01-08T20:29:34.696Z,4.95
2023-01-08T20:32:09.197Z,4.96
2023-01-08T20:34:41.638Z,4.96
2023-01-08T20:37:14.229Z,4.97
2023-01-08T20:39:48.385Z,4.98
2023-01-08T20:42:32.998Z,4.97
2023-01-08T20:45:06.743Z,4.97
2023-01-08T20:47:44.851Z,4.97
2023-01-08T20:50:27.086Z,4.97
2023-01-08T20:53:00.150Z,4.96
2023-01-08T20:55:32.489Z,4.96
2023-01-08T20:58:04.354Z,4.95
2023-01-08T21:00:36.341Z,4.95
2023-01-08T21:03:08.381Z,4.95
2023-01-08T21:05:40.249Z,4.95
2023-01-08T21:08:12.235Z,4.95
2023-01-08T21:10:44.116Z,4.95
2023-01-08T21:13:16.084Z,4.96
2023-01-08T21:15:48.621Z,4.95
2023-01-08T21:18:21.416Z,4.96
2023-01-08T21:20:58.397Z,4.97
2023-01-08T21:23:32.284Z,4.96
2023-01-08T21:26:10.279Z,4.96
2023-01-08T21:28:43.428Z,4.96
2023-01-08T21:31:20.455Z,4.96
2023-01-08T21:33:57.925Z,4.95
2023-01-08T21:36:31.803Z,4.95
2023-01-08T21:39:03.799Z,4.94
2023-01-08T21:41:54.143Z,4.92
2023-01-08T21:44:45.521Z,4.90
2023-01-08T21:47:18.891Z,4.89
2023-01-08T21:49:51.017Z,4.87
2023-01-08T21:52:41.595Z,4.86
2023-01-08T21:55:17.660Z,4.85
2023-01-08T21:57:49.435Z,4.84
2023-01-08T22:00:21.567Z,4.81
2023-01-08T22:02:53.162Z,4.83
2023-01-08T22:05:26.135Z,4.82
2023-01-08T22:07:57.873Z,4.81
2023-01-08T22:10:29.508Z,4.80
2023-01-08T22:13:01.976Z,4.79
2023-01-08T22:15:33.941Z,4.77
2023-01-08T22:18:05.728Z,4.76
2023-01-08T22:20:37.557Z,4.76
2023-01-08T22:23:10.135Z,4.76
2023-01-08T22:25:46.056Z,4.74
2023-01-08T22:28:18.336Z,4.73
2023-01-08T22:30:50.115Z,4.72
2023-01-08T22:33:23.548Z,4.71
2023-01-08T22:35:57.166Z,4.70
2023-01-08T22:38:29.180Z,4.68
2023-01-08T22:41:01.371Z,4.67
2023-01-08T22:43:33.202Z,4.67
2023-01-08T22:46:05.611Z,4.66
2023-01-08T22:48:38.459Z,4.66
2023-01-08T22:51:15.350Z,4.65
2023-01-08T22:53:47.001Z,4.65
2023-01-08T22:56:21.326Z,4.65
2023-01-08T22:58:53.457Z,4.64
2023-01-08T23:01:28.357Z,4.64
2023-01-08T23:04:01.680Z,4.63
2023-01-08T23:06:33.770Z,4.63
2023-01-08T23:09:05.425Z,4.63
2023-01-08T23:11:37.293Z,4.62
2023-01-08T23:14:12.934Z,4.61
2023-01-08T23:16:45.470Z,4.59
2023-01-08T23:19:19.628Z,4.59
2023-01-08T23:21:51.468Z,4.58
2023-01-08T23:24:23.392Z,4.57
2023-01-08T23:26:57.864Z,4.56
2023-01-08T23:29:32.591Z,4.55
2023-01-08T23:32:05.392Z,4.55
2023-01-08T23:34:39.526Z,4.54
2023-01-08T23:37:11.392Z,4.51
2023-01-08T23:39:43.442Z,4.50
2023-01-08T23:42:16.093Z,4.49
2023-01-08T23:44:49.683Z,4.48
2023-01-08T23:47:24.215Z,4.48
2023-01-08T23:49:55.979Z,4.47
2023-01-08T23:52:31.771Z,4.47
2023-01-08T23:55:04.457Z,4.46
2023-01-08T23:57:36.475Z,4.46
